OIZI

Details ICAO OIZI
Name IRAN SHAHR
Region Iran
Timezone Asia/Tehran (UTC+4.5)
Plans Departing 7
Arriving 12
Stats Elevation 2,040 ft / 622 m (AMSL)
Location 27.236117° 60.720039°
Runways 1
Magnetic Variation 1.971° E
Sunrise 2018-05-24 01:06:22 UTC / 2018-05-24 05:36:22 Local
Sunset 2018-05-24 14:44:23 UTC / 2018-05-24 19:14:23 Local
Advertisement - Login to hide

Runways

ID Width Length Bearing (true) Bearing (mag) Surface Threshold Offset Overrun Length
17 150 ft / 46 m 7,739 ft / 2,359 m 170.97° 169.00° Asphalt 0 ft / 0 m 190 ft / 58 m
35 150 ft / 46 m 7,739 ft / 2,359 m 350.97° 349.00° Asphalt 0 ft / 0 m 250 ft / 76 m

Map

Weather


0- 5 10 15 20 25 30 35+ Temperature / ° C

Clouds and Precipitation
Forecast for 2018-05-24 12:00 UTC. Updated 5 hours ago

Ground ~20,000 ft ~40,000 ft Winds

METAR

OIZI 241600Z 27006KT 9999 FEW040 36/01 Q1007

TAF

Not found

Frequencies

Tower 121.90 MHz INFO
Tower 121.70 MHz INFO
Tower 122.70 MHz INFO
Warning: Do not use this data for real-world aviation or navigation. No guarantee of current accuracy is given.